Zephyr, Texas
Current Conditions -  °F | °C
As of 6:35 PM on Friday 24 Oct 2014 (Local Time) from KBWD Reporting Station
Clear Clear  
Wind Chill: 81°   Ceiling: Unl
Heat Index: 81°   Visibility: 10mi
Dew Point: 57°   Wind: 5mph
Humidity: 45%   Direction: 140°SE
Pressure: 30.09"   Gusts: NA
Location:  31.68°N, 98.79°W
Report Text: KBWD 242335Z AUTO 14004KT 10SM CLR 27/14 A3009 RMK AO2
Loading
Personal Weather Stations






























Interactive Weather Map New forecast layout! Learn more

10-Day Weather Forecast

Advertisements
Track Severe Weather on mobile